Monhegan, Maine
Current Conditions -  °F | °C
As of 9:55 PM on Wednesday 22 Oct 2014 (Local Time) from KRKD Reporting Station
Overcast Overcast  
Wind Chill: 41°   Ceiling: 1200
Heat Index: 48°   Visibility: 10mi
Dew Point: 45°   Wind: 20mph
Humidity: 87%   Direction: 40°NE
Pressure: 30.03"   Gusts: 32mph
Location:  43.76°N, 69.32°W
Report Text: KRKD 230155Z AUTO 04017G28KT 10SM OVC012 09/07 A3003 RMK AO1
Loading
Personal Weather Stations






























Interactive Weather Map
Tropical Storm Tracking
New forecast layout! Learn more

10-Day Weather Forecast

Advertisements
Track Severe Weather on mobile